sensor_id;sensor_type;location;lat;lon;timestamp;P1;durP1;ratioP1;P2;durP2;ratioP2
75362;SDS011;64122;51.988;5.892;2022-11-04T05:21:01;19.55;;;8.88;;
75362;SDS011;64122;51.988;5.892;2022-11-04T05:23:31;17.70;;;7.40;;
75362;SDS011;64122;51.988;5.892;2022-11-04T05:26:01;14.07;;;6.07;;
75362;SDS011;64122;51.988;5.892;2022-11-04T05:28:31;15.43;;;6.40;;
75362;SDS011;64122;51.988;5.892;2022-11-04T05:31:01;14.98;;;6.07;;
75362;SDS011;64122;51.988;5.892;2022-11-04T05:33:31;12.75;;;5.70;;
75362;SDS011;64122;51.988;5.892;2022-11-04T05:36:07;18.23;;;6.60;;
75362;SDS011;64122;51.988;5.892;2022-11-04T05:38:37;14.98;;;6.05;;
75362;SDS011;64122;51.988;5.892;2022-11-04T05:41:07;10.80;;;5.10;;
75362;SDS011;64122;51.988;5.892;2022-11-04T05:43:50;14.52;;;5.55;;
75362;SDS011;64122;51.988;5.892;2022-11-04T05:46:20;14.38;;;5.45;;
75362;SDS011;64122;51.988;5.892;2022-11-04T05:48:49;11.38;;;5.72;;
75362;SDS011;64122;51.988;5.892;2022-11-04T05:51:22;14.95;;;5.50;;
75362;SDS011;64122;51.988;5.892;2022-11-04T05:53:52;14.82;;;5.38;;
75362;SDS011;64122;51.988;5.892;2022-11-04T05:56:21;14.90;;;5.38;;
75362;SDS011;64122;51.988;5.892;2022-11-04T05:58:50;12.75;;;5.32;;
75362;SDS011;64122;51.988;5.892;2022-11-04T06:01:24;10.05;;;4.32;;
75362;SDS011;64122;51.988;5.892;2022-11-04T06:03:55;13.43;;;5.22;;
75362;SDS011;64122;51.988;5.892;2022-11-04T06:06:29;11.75;;;4.85;;
75362;SDS011;64122;51.988;5.892;2022-11-04T06:09:00;14.60;;;5.85;;
75362;SDS011;64122;51.988;5.892;2022-11-04T06:11:31;12.65;;;4.40;;
75362;SDS011;64122;51.988;5.892;2022-11-04T06:14:01;12.60;;;5.28;;
75362;SDS011;64122;51.988;5.892;2022-11-04T06:16:30;8.25;;;4.00;;
75362;SDS011;64122;51.988;5.892;2022-11-04T06:19:00;9.45;;;4.53;;
75362;SDS011;64122;51.988;5.892;2022-11-04T06:21:32;14.07;;;4.40;;
75362;SDS011;64122;51.988;5.892;2022-11-04T06:24:01;8.85;;;3.97;;
75362;SDS011;64122;51.988;5.892;2022-11-04T06:26:30;8.43;;;3.90;;
75362;SDS011;64122;51.988;5.892;2022-11-04T06:29:00;14.35;;;4.50;;
75362;SDS011;64122;51.988;5.892;2022-11-04T06:31:29;10.13;;;3.42;;
75362;SDS011;64122;51.988;5.892;2022-11-04T06:33:58;15.32;;;4.70;;
75362;SDS011;64122;51.988;5.892;2022-11-04T06:36:27;11.50;;;4.18;;
75362;SDS011;64122;51.988;5.892;2022-11-04T06:38:59;13.30;;;4.07;;
75362;SDS011;64122;51.988;5.892;2022-11-04T06:41:28;11.48;;;3.63;;
75362;SDS011;64122;51.988;5.892;2022-11-04T06:43:58;14.13;;;3.70;;
75362;SDS011;64122;51.988;5.892;2022-11-04T06:46:28;10.02;;;3.60;;
75362;SDS011;64122;51.988;5.892;2022-11-04T06:49:02;13.00;;;4.03;;
75362;SDS011;64122;51.988;5.892;2022-11-04T06:51:32;11.98;;;4.00;;
75362;SDS011;64122;51.988;5.892;2022-11-04T06:54:04;10.60;;;3.45;;
75362;SDS011;64122;51.988;5.892;2022-11-04T06:56:33;14.20;;;4.07;;
75362;SDS011;64122;51.988;5.892;2022-11-04T06:59:02;8.48;;;3.70;;
75362;SDS011;64122;51.988;5.892;2022-11-04T07:01:33;11.60;;;3.78;;
75362;SDS011;64122;51.988;5.892;2022-11-04T07:04:03;9.40;;;3.40;;
75362;SDS011;64122;51.988;5.892;2022-11-04T07:06:32;11.38;;;3.72;;
75362;SDS011;64122;51.988;5.892;2022-11-04T07:09:04;13.95;;;4.20;;
75362;SDS011;64122;51.988;5.892;2022-11-04T07:11:33;9.73;;;3.88;;
75362;SDS011;64122;51.988;5.892;2022-11-04T07:14:03;10.90;;;4.93;;
75362;SDS011;64122;51.988;5.892;2022-11-04T07:16:33;13.70;;;3.92;;
75362;SDS011;64122;51.988;5.892;2022-11-04T07:19:03;16.48;;;3.50;;
75362;SDS011;64122;51.988;5.892;2022-11-04T07:21:32;11.15;;;3.33;;
75362;SDS011;64122;51.988;5.892;2022-11-04T07:24:04;12.85;;;4.20;;
75362;SDS011;64122;51.988;5.892;2022-11-04T07:29:03;13.68;;;4.40;;
75362;SDS011;64122;51.988;5.892;2022-11-04T07:31:33;9.25;;;4.05;;
75362;SDS011;64122;51.988;5.892;2022-11-04T07:34:02;12.80;;;3.92;;
75362;SDS011;64122;51.988;5.892;2022-11-04T07:36:31;7.53;;;3.33;;
75362;SDS011;64122;51.988;5.892;2022-11-04T07:39:00;10.02;;;3.92;;
75362;SDS011;64122;51.988;5.892;2022-11-04T07:41:32;10.15;;;3.85;;
75362;SDS011;64122;51.988;5.892;2022-11-04T07:44:01;11.90;;;3.65;;
75362;SDS011;64122;51.988;5.892;2022-11-04T07:46:31;10.77;;;4.05;;
75362;SDS011;64122;51.988;5.892;2022-11-04T07:49:02;13.02;;;4.88;;
75362;SDS011;64122;51.988;5.892;2022-11-04T07:51:31;9.93;;;3.75;;
75362;SDS011;64122;51.988;5.892;2022-11-04T07:54:01;12.77;;;3.75;;
75362;SDS011;64122;51.988;5.892;2022-11-04T07:56:32;9.48;;;3.70;;
75362;SDS011;64122;51.988;5.892;2022-11-04T07:59:04;12.20;;;4.05;;
75362;SDS011;64122;51.988;5.892;2022-11-04T08:01:33;12.18;;;3.70;;
75362;SDS011;64122;51.988;5.892;2022-11-04T08:04:03;9.30;;;3.75;;
75362;SDS011;64122;51.988;5.892;2022-11-04T08:06:32;9.88;;;4.07;;
75362;SDS011;64122;51.988;5.892;2022-11-04T08:09:05;10.65;;;3.63;;
75362;SDS011;64122;51.988;5.892;2022-11-04T08:11:34;9.68;;;3.90;;
75362;SDS011;64122;51.988;5.892;2022-11-04T08:14:04;12.15;;;4.20;;
75362;SDS011;64122;51.988;5.892;2022-11-04T08:16:33;9.52;;;4.20;;
75362;SDS011;64122;51.988;5.892;2022-11-04T08:19:02;11.27;;;3.95;;
75362;SDS011;64122;51.988;5.892;2022-11-04T08:21:32;8.25;;;3.60;;
75362;SDS011;64122;51.988;5.892;2022-11-04T08:24:05;11.20;;;3.80;;
75362;SDS011;64122;51.988;5.892;2022-11-04T08:26:34;10.45;;;3.83;;
75362;SDS011;64122;51.988;5.892;2022-11-04T08:29:05;9.18;;;3.70;;
75362;SDS011;64122;51.988;5.892;2022-11-04T08:31:34;9.45;;;4.55;;
75362;SDS011;64122;51.988;5.892;2022-11-04T08:34:05;12.32;;;3.50;;
75362;SDS011;64122;51.988;5.892;2022-11-04T08:36:35;10.45;;;4.07;;
75362;SDS011;64122;51.988;5.892;2022-11-04T08:39:08;9.85;;;3.47;;
75362;SDS011;64122;51.988;5.892;2022-11-04T08:41:38;11.85;;;3.63;;
75362;SDS011;64122;51.988;5.892;2022-11-04T08:44:10;12.88;;;3.85;;
75362;SDS011;64122;51.988;5.892;2022-11-04T08:46:41;9.52;;;3.42;;
75362;SDS011;64122;51.988;5.892;2022-11-04T08:49:11;11.13;;;3.92;;
75362;SDS011;64122;51.988;5.892;2022-11-04T08:51:42;9.45;;;3.40;;
75362;SDS011;64122;51.988;5.892;2022-11-04T08:54:16;13.43;;;4.68;;
75362;SDS011;64122;51.988;5.892;2022-11-04T08:56:46;12.65;;;3.75;;
75362;SDS011;64122;51.988;5.892;2022-11-04T08:59:15;11.23;;;4.10;;
75362;SDS011;64122;51.988;5.892;2022-11-04T09:01:44;8.82;;;3.38;;
75362;SDS011;64122;51.988;5.892;2022-11-04T09:04:14;11.52;;;3.72;;
75362;SDS011;64122;51.988;5.892;2022-11-04T09:06:44;8.52;;;3.13;;
75362;SDS011;64122;51.988;5.892;2022-11-04T09:09:18;10.45;;;4.03;;
75362;SDS011;64122;51.988;5.892;2022-11-04T09:11:47;8.95;;;3.30;;
75362;SDS011;64122;51.988;5.892;2022-11-04T09:14:16;11.43;;;3.92;;
75362;SDS011;64122;51.988;5.892;2022-11-04T09:16:48;14.73;;;4.30;;
75362;SDS011;64122;51.988;5.892;2022-11-04T09:19:18;8.65;;;3.63;;
75362;SDS011;64122;51.988;5.892;2022-11-04T09:21:48;9.25;;;3.70;;
75362;SDS011;64122;51.988;5.892;2022-11-04T09:24:19;11.23;;;3.63;;
75362;SDS011;64122;51.988;5.892;2022-11-04T09:26:49;10.82;;;3.45;;
75362;SDS011;64122;51.988;5.892;2022-11-04T09:29:18;13.57;;;4.13;;
75362;SDS011;64122;51.988;5.892;2022-11-04T09:31:47;13.32;;;5.57;;
75362;SDS011;64122;51.988;5.892;2022-11-04T09:34:17;11.55;;;5.68;;
75362;SDS011;64122;51.988;5.892;2022-11-04T09:36:46;13.40;;;5.55;;
75362;SDS011;64122;51.988;5.892;2022-11-04T09:39:16;14.85;;;6.38;;
75362;SDS011;64122;51.988;5.892;2022-11-04T09:42:05;12.60;;;5.70;;
75362;SDS011;64122;51.988;5.892;2022-11-04T09:44:47;16.05;;;6.05;;
75362;SDS011;64122;51.988;5.892;2022-11-04T09:47:18;11.93;;;6.35;;
75362;SDS011;64122;51.988;5.892;2022-11-04T09:49:50;23.75;;;7.00;;
75362;SDS011;64122;51.988;5.892;2022-11-04T09:52:23;15.50;;;6.10;;
75362;SDS011;64122;51.988;5.892;2022-11-04T09:54:55;13.85;;;7.22;;
75362;SDS011;64122;51.988;5.892;2022-11-04T09:57:32;15.10;;;6.68;;
75362;SDS011;64122;51.988;5.892;2022-11-04T10:00:02;12.63;;;6.43;;
75362;SDS011;64122;51.988;5.892;2022-11-04T10:02:41;19.95;;;7.00;;
75362;SDS011;64122;51.988;5.892;2022-11-04T10:05:23;22.23;;;6.85;;
75362;SDS011;64122;51.988;5.892;2022-11-04T10:08:05;17.17;;;6.03;;
75362;SDS011;64122;51.988;5.892;2022-11-04T10:10:48;13.48;;;5.53;;
75362;SDS011;64122;51.988;5.892;2022-11-04T10:13:33;13.73;;;6.38;;
75362;SDS011;64122;51.988;5.892;2022-11-04T10:19:19;14.60;;;6.55;;
75362;SDS011;64122;51.988;5.892;2022-11-04T10:22:00;12.10;;;6.15;;
75362;SDS011;64122;51.988;5.892;2022-11-04T10:24:39;19.15;;;6.75;;
75362;SDS011;64122;51.988;5.892;2022-11-04T10:27:11;20.23;;;7.53;;
75362;SDS011;64122;51.988;5.892;2022-11-04T10:29:48;14.95;;;6.85;;
75362;SDS011;64122;51.988;5.892;2022-11-04T10:32:21;17.05;;;7.18;;
75362;SDS011;64122;51.988;5.892;2022-11-04T10:37:25;18.55;;;7.40;;
75362;SDS011;64122;51.988;5.892;2022-11-04T10:39:57;19.98;;;7.72;;
75362;SDS011;64122;51.988;5.892;2022-11-04T10:42:34;19.83;;;7.90;;
75362;SDS011;64122;51.988;5.892;2022-11-04T10:45:09;17.73;;;8.23;;
75362;SDS011;64122;51.988;5.892;2022-11-04T10:47:40;19.88;;;7.32;;
75362;SDS011;64122;51.988;5.892;2022-11-04T10:50:23;18.05;;;7.68;;
75362;SDS011;64122;51.988;5.892;2022-11-04T10:55:37;15.05;;;7.72;;
75362;SDS011;64122;51.988;5.892;2022-11-04T10:58:11;17.90;;;8.95;;
75362;SDS011;64122;51.988;5.892;2022-11-04T11:00:48;15.20;;;7.07;;
75362;SDS011;64122;51.988;5.892;2022-11-04T11:03:22;12.02;;;6.60;;
75362;SDS011;64122;51.988;5.892;2022-11-04T11:05:55;14.30;;;7.32;;
75362;SDS011;64122;51.988;5.892;2022-11-04T11:08:39;15.05;;;6.95;;
75362;SDS011;64122;51.988;5.892;2022-11-04T11:11:10;12.82;;;7.32;;
75362;SDS011;64122;51.988;5.892;2022-11-04T11:13:42;20.42;;;8.50;;
75362;SDS011;64122;51.988;5.892;2022-11-04T11:16:16;15.25;;;8.25;;
75362;SDS011;64122;51.988;5.892;2022-11-04T11:19:06;13.02;;;7.28;;
75362;SDS011;64122;51.988;5.892;2022-11-04T11:21:43;16.58;;;7.93;;
75362;SDS011;64122;51.988;5.892;2022-11-04T11:24:16;13.25;;;7.53;;
75362;SDS011;64122;51.988;5.892;2022-11-04T11:26:48;15.13;;;7.85;;
75362;SDS011;64122;51.988;5.892;2022-11-04T11:29:20;17.77;;;8.35;;
75362;SDS011;64122;51.988;5.892;2022-11-04T11:31:55;14.98;;;8.25;;
75362;SDS011;64122;51.988;5.892;2022-11-04T11:34:27;17.95;;;8.02;;
75362;SDS011;64122;51.988;5.892;2022-11-04T11:37:00;12.38;;;7.25;;
75362;SDS011;64122;51.988;5.892;2022-11-04T11:39:32;19.10;;;8.68;;
75362;SDS011;64122;51.988;5.892;2022-11-04T11:42:03;19.05;;;8.85;;
75362;SDS011;64122;51.988;5.892;2022-11-04T11:44:35;16.80;;;8.82;;
75362;SDS011;64122;51.988;5.892;2022-11-04T11:47:17;17.35;;;8.25;;
75362;SDS011;64122;51.988;5.892;2022-11-04T11:50:03;14.90;;;8.27;;
75362;SDS011;64122;51.988;5.892;2022-11-04T11:52:35;11.82;;;7.55;;
75362;SDS011;64122;51.988;5.892;2022-11-04T11:55:05;15.73;;;8.15;;
75362;SDS011;64122;51.988;5.892;2022-11-04T11:57:46;16.50;;;8.52;;
75362;SDS011;64122;51.988;5.892;2022-11-04T12:00:20;13.20;;;7.40;;
75362;SDS011;64122;51.988;5.892;2022-11-04T12:03:02;11.82;;;7.30;;
75362;SDS011;64122;51.988;5.892;2022-11-04T12:05:40;15.70;;;7.45;;
75362;SDS011;64122;51.988;5.892;2022-11-04T12:08:22;12.52;;;7.88;;
75362;SDS011;64122;51.988;5.892;2022-11-04T12:11:05;14.02;;;7.88;;
75362;SDS011;64122;51.988;5.892;2022-11-04T12:13:39;15.20;;;8.43;;
75362;SDS011;64122;51.988;5.892;2022-11-04T12:16:26;17.63;;;8.90;;
75362;SDS011;64122;51.988;5.892;2022-11-04T12:19:06;14.43;;;9.43;;
75362;SDS011;64122;51.988;5.892;2022-11-04T12:21:48;16.98;;;9.25;;
75362;SDS011;64122;51.988;5.892;2022-11-04T12:24:27;17.77;;;10.25;;
75362;SDS011;64122;51.988;5.892;2022-11-04T12:27:03;17.40;;;10.25;;
75362;SDS011;64122;51.988;5.892;2022-11-04T12:29:44;17.15;;;9.52;;
75362;SDS011;64122;51.988;5.892;2022-11-04T12:32:26;15.57;;;9.07;;
75362;SDS011;64122;51.988;5.892;2022-11-04T12:35:09;15.52;;;9.13;;
75362;SDS011;64122;51.988;5.892;2022-11-04T12:37:53;14.90;;;8.70;;
75362;SDS011;64122;51.988;5.892;2022-11-04T12:40:33;13.85;;;8.10;;
75362;SDS011;64122;51.988;5.892;2022-11-04T12:43:13;16.42;;;8.48;;
75362;SDS011;64122;51.988;5.892;2022-11-04T12:45:56;15.63;;;9.55;;
75362;SDS011;64122;51.988;5.892;2022-11-04T12:51:32;16.42;;;9.00;;
75362;SDS011;64122;51.988;5.892;2022-11-04T12:54:23;16.98;;;9.30;;
75362;SDS011;64122;51.988;5.892;2022-11-04T12:57:09;17.20;;;10.18;;
75362;SDS011;64122;51.988;5.892;2022-11-04T12:59:53;12.95;;;8.60;;
75362;SDS011;64122;51.988;5.892;2022-11-04T13:02:33;21.00;;;10.18;;
75362;SDS011;64122;51.988;5.892;2022-11-04T13:05:08;16.67;;;9.68;;
75362;SDS011;64122;51.988;5.892;2022-11-04T13:07:55;15.15;;;10.25;;
75362;SDS011;64122;51.988;5.892;2022-11-04T13:10:33;17.23;;;9.73;;
75362;SDS011;64122;51.988;5.892;2022-11-04T13:13:08;17.30;;;10.32;;
75362;SDS011;64122;51.988;5.892;2022-11-04T13:15:42;16.50;;;8.98;;
75362;SDS011;64122;51.988;5.892;2022-11-04T13:18:15;13.63;;;8.93;;
75362;SDS011;64122;51.988;5.892;2022-11-04T13:20:49;15.07;;;8.27;;
75362;SDS011;64122;51.988;5.892;2022-11-04T13:23:27;15.68;;;9.57;;
75362;SDS011;64122;51.988;5.892;2022-11-04T13:26:00;17.73;;;9.82;;
75362;SDS011;64122;51.988;5.892;2022-11-04T13:28:32;18.33;;;10.45;;
75362;SDS011;64122;51.988;5.892;2022-11-04T13:31:07;19.80;;;9.85;;
75362;SDS011;64122;51.988;5.892;2022-11-04T13:33:46;15.95;;;10.05;;
75362;SDS011;64122;51.988;5.892;2022-11-04T13:36:23;13.35;;;8.73;;
75362;SDS011;64122;51.988;5.892;2022-11-04T13:39:06;15.07;;;8.13;;
75362;SDS011;64122;51.988;5.892;2022-11-04T13:44:47;13.75;;;8.70;;
75362;SDS011;64122;51.988;5.892;2022-11-04T13:47:19;13.98;;;8.30;;
75362;SDS011;64122;51.988;5.892;2022-11-04T13:49:52;14.63;;;8.32;;
75362;SDS011;64122;51.988;5.892;2022-11-04T13:52:24;14.90;;;8.70;;
75362;SDS011;64122;51.988;5.892;2022-11-04T13:55:02;16.45;;;9.00;;
75362;SDS011;64122;51.988;5.892;2022-11-04T13:57:34;12.93;;;7.85;;
75362;SDS011;64122;51.988;5.892;2022-11-04T14:00:22;15.13;;;8.45;;
75362;SDS011;64122;51.988;5.892;2022-11-04T14:02:52;16.10;;;8.68;;
75362;SDS011;64122;51.988;5.892;2022-11-04T14:08:29;13.52;;;8.63;;
75362;SDS011;64122;51.988;5.892;2022-11-04T14:11:08;14.32;;;8.80;;
75362;SDS011;64122;51.988;5.892;2022-11-04T14:13:48;13.32;;;7.50;;
75362;SDS011;64122;51.988;5.892;2022-11-04T14:16:37;13.43;;;8.18;;
75362;SDS011;64122;51.988;5.892;2022-11-04T14:22:21;14.98;;;8.20;;
75362;SDS011;64122;51.988;5.892;2022-11-04T14:24:57;13.77;;;7.40;;
75362;SDS011;64122;51.988;5.892;2022-11-04T14:27:38;12.35;;;7.10;;
75362;SDS011;64122;51.988;5.892;2022-11-04T14:30:25;13.52;;;7.15;;
75362;SDS011;64122;51.988;5.892;2022-11-04T14:33:25;17.33;;;8.18;;
75362;SDS011;64122;51.988;5.892;2022-11-04T14:36:16;15.77;;;6.60;;
75362;SDS011;64122;51.988;5.892;2022-11-04T14:38:53;14.07;;;7.88;;
75362;SDS011;64122;51.988;5.892;2022-11-04T14:41:29;20.38;;;8.18;;
75362;SDS011;64122;51.988;5.892;2022-11-04T14:44:24;11.98;;;6.95;;
75362;SDS011;64122;51.988;5.892;2022-11-04T14:46:58;13.45;;;7.05;;
75362;SDS011;64122;51.988;5.892;2022-11-04T14:49:41;15.27;;;7.20;;
75362;SDS011;64122;51.988;5.892;2022-11-04T14:52:19;15.82;;;7.30;;
75362;SDS011;64122;51.988;5.892;2022-11-04T14:54:53;8.38;;;4.13;;
75362;SDS011;64122;51.988;5.892;2022-11-04T14:57:27;8.70;;;3.38;;
75362;SDS011;64122;51.988;5.892;2022-11-04T15:00:05;4.85;;;1.52;;
75362;SDS011;64122;51.988;5.892;2022-11-04T15:02:48;3.35;;;0.85;;
75362;SDS011;64122;51.988;5.892;2022-11-04T15:05:28;3.13;;;0.75;;
75362;SDS011;64122;51.988;5.892;2022-11-04T15:08:01;2.42;;;0.80;;
75362;SDS011;64122;51.988;5.892;2022-11-04T15:10:47;1.88;;;0.65;;
75362;SDS011;64122;51.988;5.892;2022-11-04T15:13:18;2.50;;;0.73;;
75362;SDS011;64122;51.988;5.892;2022-11-04T15:15:51;4.47;;;0.82;;
75362;SDS011;64122;51.988;5.892;2022-11-04T15:18:22;3.95;;;1.02;;
75362;SDS011;64122;51.988;5.892;2022-11-04T15:20:58;2.65;;;0.77;;
75362;SDS011;64122;51.988;5.892;2022-11-04T15:23:32;10.88;;;4.82;;
75362;SDS011;64122;51.988;5.892;2022-11-04T15:26:04;22.02;;;7.38;;
75362;SDS011;64122;51.988;5.892;2022-11-04T15:28:37;7.25;;;1.70;;
75362;SDS011;64122;51.988;5.892;2022-11-04T15:31:17;11.63;;;3.35;;
75362;SDS011;64122;51.988;5.892;2022-11-04T15:33:49;5.78;;;1.02;;
75362;SDS011;64122;51.988;5.892;2022-11-04T15:36:22;3.38;;;1.23;;
75362;SDS011;64122;51.988;5.892;2022-11-04T15:38:54;12.27;;;5.13;;
75362;SDS011;64122;51.988;5.892;2022-11-04T15:41:28;15.95;;;10.30;;
75362;SDS011;64122;51.988;5.892;2022-11-04T15:44:15;9.48;;;6.70;;
75362;SDS011;64122;51.988;5.892;2022-11-04T15:46:50;11.88;;;7.55;;
75362;SDS011;64122;51.988;5.892;2022-11-04T15:49:21;11.68;;;7.13;;
75362;SDS011;64122;51.988;5.892;2022-11-04T15:51:52;9.80;;;5.93;;
75362;SDS011;64122;51.988;5.892;2022-11-04T15:54:26;15.75;;;9.20;;
75362;SDS011;64122;51.988;5.892;2022-11-04T15:56:58;12.95;;;6.80;;
75362;SDS011;64122;51.988;5.892;2022-11-04T15:59:31;11.40;;;3.90;;
75362;SDS011;64122;51.988;5.892;2022-11-04T16:02:05;6.93;;;2.75;;
75362;SDS011;64122;51.988;5.892;2022-11-04T16:04:58;5.53;;;2.20;;
75362;SDS011;64122;51.988;5.892;2022-11-04T16:07:32;6.55;;;2.15;;
75362;SDS011;64122;51.988;5.892;2022-11-04T16:12:53;18.00;;;5.47;;
75362;SDS011;64122;51.988;5.892;2022-11-04T16:15:34;33.92;;;10.90;;
75362;SDS011;64122;51.988;5.892;2022-11-04T16:18:18;24.65;;;7.60;;
75362;SDS011;64122;51.988;5.892;2022-11-04T16:20:51;37.28;;;14.82;;
75362;SDS011;64122;51.988;5.892;2022-11-04T16:23:22;18.35;;;7.50;;
75362;SDS011;64122;51.988;5.892;2022-11-04T16:25:55;11.10;;;4.50;;
75362;SDS011;64122;51.988;5.892;2022-11-04T16:30:56;16.98;;;7.60;;
75362;SDS011;64122;51.988;5.892;2022-11-04T16:33:28;14.18;;;7.38;;
75362;SDS011;64122;51.988;5.892;2022-11-04T16:35:57;14.40;;;6.82;;
75362;SDS011;64122;51.988;5.892;2022-11-04T16:38:27;13.05;;;5.15;;
75362;SDS011;64122;51.988;5.892;2022-11-04T16:40:56;30.65;;;13.25;;
75362;SDS011;64122;51.988;5.892;2022-11-04T16:43:26;6.97;;;3.05;;
75362;SDS011;64122;51.988;5.892;2022-11-04T16:45:55;6.70;;;2.05;;
75362;SDS011;64122;51.988;5.892;2022-11-04T16:48:24;14.15;;;6.13;;
75362;SDS011;64122;51.988;5.892;2022-11-04T16:50:56;13.77;;;6.00;;
75362;SDS011;64122;51.988;5.892;2022-11-04T16:53:25;9.52;;;4.20;;
75362;SDS011;64122;51.988;5.892;2022-11-04T16:55:55;8.93;;;3.35;;
75362;SDS011;64122;51.988;5.892;2022-11-04T16:58:26;7.20;;;2.47;;
75362;SDS011;64122;51.988;5.892;2022-11-04T17:00:56;9.38;;;2.58;;
75362;SDS011;64122;51.988;5.892;2022-11-04T17:03:26;5.68;;;2.13;;
75362;SDS011;64122;51.988;5.892;2022-11-04T17:05:58;7.25;;;2.92;;
75362;SDS011;64122;51.988;5.892;2022-11-04T17:08:28;12.57;;;6.63;;
75362;SDS011;64122;51.988;5.892;2022-11-04T17:10:57;64.00;;;23.85;;
75362;SDS011;64122;51.988;5.892;2022-11-04T17:13:26;38.20;;;16.13;;
75362;SDS011;64122;51.988;5.892;2022-11-04T17:15:56;34.47;;;12.45;;
75362;SDS011;64122;51.988;5.892;2022-11-04T17:18:28;39.38;;;15.52;;
75362;SDS011;64122;51.988;5.892;2022-11-04T17:23:32;22.13;;;9.82;;
75362;SDS011;64122;51.988;5.892;2022-11-04T17:26:01;21.67;;;8.60;;
75362;SDS011;64122;51.988;5.892;2022-11-04T17:28:31;28.42;;;11.98;;
75362;SDS011;64122;51.988;5.892;2022-11-04T17:31:00;35.70;;;16.25;;
75362;SDS011;64122;51.988;5.892;2022-11-04T17:33:30;20.30;;;9.18;;
75362;SDS011;64122;51.988;5.892;2022-11-04T17:36:02;20.52;;;7.55;;
75362;SDS011;64122;51.988;5.892;2022-11-04T17:38:31;17.67;;;7.70;;
75362;SDS011;64122;51.988;5.892;2022-11-04T17:41:00;31.75;;;13.50;;
75362;SDS011;64122;51.988;5.892;2022-11-04T17:43:42;31.27;;;13.77;;
75362;SDS011;64122;51.988;5.892;2022-11-04T17:46:24;16.52;;;5.82;;
75362;SDS011;64122;51.988;5.892;2022-11-04T17:49:04;20.88;;;8.85;;
75362;SDS011;64122;51.988;5.892;2022-11-04T17:51:38;20.70;;;9.55;;
75362;SDS011;64122;51.988;5.892;2022-11-04T17:54:08;20.15;;;8.90;;
75362;SDS011;64122;51.988;5.892;2022-11-04T17:56:38;17.80;;;6.00;;
75362;SDS011;64122;51.988;5.892;2022-11-04T17:59:09;8.05;;;3.67;;
75362;SDS011;64122;51.988;5.892;2022-11-04T18:01:40;11.60;;;4.82;;
75362;SDS011;64122;51.988;5.892;2022-11-04T18:04:11;12.48;;;4.35;;
75362;SDS011;64122;51.988;5.892;2022-11-04T18:06:45;10.23;;;3.30;;
75362;SDS011;64122;51.988;5.892;2022-11-04T18:09:14;10.90;;;3.35;;
75362;SDS011;64122;51.988;5.892;2022-11-04T18:11:44;6.97;;;3.33;;
75362;SDS011;64122;51.988;5.892;2022-11-04T18:14:27;9.00;;;3.50;;
75362;SDS011;64122;51.988;5.892;2022-11-04T18:16:56;9.80;;;5.15;;
75362;SDS011;64122;51.988;5.892;2022-11-04T18:19:25;7.85;;;3.88;;
75362;SDS011;64122;51.988;5.892;2022-11-04T18:21:58;8.20;;;3.92;;
75362;SDS011;64122;51.988;5.892;2022-11-04T18:24:28;8.80;;;4.80;;
75362;SDS011;64122;51.988;5.892;2022-11-04T18:26:57;17.23;;;5.43;;
75362;SDS011;64122;51.988;5.892;2022-11-04T18:29:26;9.10;;;4.10;;
75362;SDS011;64122;51.988;5.892;2022-11-04T18:31:56;7.20;;;3.45;;
75362;SDS011;64122;51.988;5.892;2022-11-04T18:34:26;7.75;;;3.83;;
75362;SDS011;64122;51.988;5.892;2022-11-04T18:36:57;11.63;;;3.83;;
75362;SDS011;64122;51.988;5.892;2022-11-04T18:39:27;12.57;;;3.72;;
75362;SDS011;64122;51.988;5.892;2022-11-04T18:41:56;8.45;;;3.70;;
75362;SDS011;64122;51.988;5.892;2022-11-04T18:44:25;9.77;;;3.58;;
75362;SDS011;64122;51.988;5.892;2022-11-04T18:46:55;10.63;;;3.67;;
75362;SDS011;64122;51.988;5.892;2022-11-04T18:49:24;9.07;;;3.40;;
75362;SDS011;64122;51.988;5.892;2022-11-04T18:51:53;11.07;;;3.50;;
75362;SDS011;64122;51.988;5.892;2022-11-04T18:54:27;9.10;;;3.25;;
75362;SDS011;64122;51.988;5.892;2022-11-04T18:56:56;8.50;;;3.42;;
75362;SDS011;64122;51.988;5.892;2022-11-04T18:59:26;8.40;;;3.47;;
75362;SDS011;64122;51.988;5.892;2022-11-04T19:01:55;10.15;;;3.72;;
75362;SDS011;64122;51.988;5.892;2022-11-04T19:04:24;8.75;;;3.83;;
75362;SDS011;64122;51.988;5.892;2022-11-04T19:06:53;9.23;;;3.75;;
75362;SDS011;64122;51.988;5.892;2022-11-04T19:09:23;11.80;;;4.13;;
75362;SDS011;64122;51.988;5.892;2022-11-04T19:11:54;9.70;;;5.00;;
75362;SDS011;64122;51.988;5.892;2022-11-04T19:14:36;12.05;;;5.72;;
75362;SDS011;64122;51.988;5.892;2022-11-04T19:17:06;14.13;;;6.40;;
75362;SDS011;64122;51.988;5.892;2022-11-04T19:19:35;14.77;;;7.35;;
75362;SDS011;64122;51.988;5.892;2022-11-04T19:22:04;11.98;;;7.30;;
75362;SDS011;64122;51.988;5.892;2022-11-04T19:24:33;14.45;;;6.55;;
75362;SDS011;64122;51.988;5.892;2022-11-04T19:27:05;14.45;;;7.45;;
75362;SDS011;64122;51.988;5.892;2022-11-04T19:29:35;11.88;;;6.50;;
75362;SDS011;64122;51.988;5.892;2022-11-04T19:32:04;13.07;;;6.63;;
75362;SDS011;64122;51.988;5.892;2022-11-04T19:34:33;15.02;;;7.35;;
75362;SDS011;64122;51.988;5.892;2022-11-04T19:37:03;14.10;;;7.20;;
75362;SDS011;64122;51.988;5.892;2022-11-04T19:39:32;14.52;;;8.02;;
75362;SDS011;64122;51.988;5.892;2022-11-04T19:42:02;22.25;;;8.15;;
75362;SDS011;64122;51.988;5.892;2022-11-04T19:44:46;15.70;;;7.90;;
75362;SDS011;64122;51.988;5.892;2022-11-04T19:47:15;14.10;;;7.05;;
75362;SDS011;64122;51.988;5.892;2022-11-04T19:49:45;14.82;;;7.03;;
75362;SDS011;64122;51.988;5.892;2022-11-04T19:52:14;15.20;;;6.93;;
75362;SDS011;64122;51.988;5.892;2022-11-04T19:54:44;14.13;;;5.80;;
75362;SDS011;64122;51.988;5.892;2022-11-04T19:57:13;14.73;;;6.68;;
75362;SDS011;64122;51.988;5.892;2022-11-04T19:59:43;9.35;;;4.45;;
75362;SDS011;64122;51.988;5.892;2022-11-04T20:02:17;15.25;;;5.57;;
75362;SDS011;64122;51.988;5.892;2022-11-04T20:04:46;16.20;;;5.93;;
75362;SDS011;64122;51.988;5.892;2022-11-04T20:07:15;15.45;;;6.03;;
75362;SDS011;64122;51.988;5.892;2022-11-04T20:09:45;11.27;;;3.85;;
75362;SDS011;64122;51.988;5.892;2022-11-04T20:12:14;9.70;;;3.50;;
75362;SDS011;64122;51.988;5.892;2022-11-04T20:14:58;20.23;;;6.90;;
75362;SDS011;64122;51.988;5.892;2022-11-04T20:17:29;14.10;;;4.90;;
75362;SDS011;64122;51.988;5.892;2022-11-04T20:19:59;11.70;;;4.72;;
75362;SDS011;64122;51.988;5.892;2022-11-04T20:22:28;22.42;;;5.28;;
75362;SDS011;64122;51.988;5.892;2022-11-04T20:24:57;15.23;;;4.53;;
75362;SDS011;64122;51.988;5.892;2022-11-04T20:27:26;12.07;;;5.25;;
75362;SDS011;64122;51.988;5.892;2022-11-04T20:29:56;19.55;;;7.88;;
75362;SDS011;64122;51.988;5.892;2022-11-04T20:32:28;11.77;;;4.90;;
75362;SDS011;64122;51.988;5.892;2022-11-04T20:34:57;13.23;;;5.55;;
75362;SDS011;64122;51.988;5.892;2022-11-04T20:37:26;16.40;;;5.03;;
75362;SDS011;64122;51.988;5.892;2022-11-04T20:39:56;9.95;;;4.13;;
75362;SDS011;64122;51.988;5.892;2022-11-04T20:42:25;9.07;;;4.85;;
75362;SDS011;64122;51.988;5.892;2022-11-04T20:44:54;10.27;;;4.53;;
75362;SDS011;64122;51.988;5.892;2022-11-04T20:47:26;14.98;;;4.65;;
75362;SDS011;64122;51.988;5.892;2022-11-04T20:49:55;13.38;;;4.00;;
75362;SDS011;64122;51.988;5.892;2022-11-04T20:52:24;13.10;;;4.18;;
75362;SDS011;64122;51.988;5.892;2022-11-04T20:54:54;10.65;;;4.47;;
75362;SDS011;64122;51.988;5.892;2022-11-04T20:57:23;9.48;;;4.10;;
75362;SDS011;64122;51.988;5.892;2022-11-04T20:59:52;13.88;;;5.18;;
75362;SDS011;64122;51.988;5.892;2022-11-04T21:02:22;13.63;;;5.63;;